Time;durP1;ratioP1;P1;durP2;ratioP2;P2;SDS_P1;SDS_P2;PMS_P1;PMS_P2;Temp;Humidity;BMP_temperature;BMP_pressure;BME280_temperature;BME280_humidity;BME280_pressure;Samples;Min_cycle;Max_cycle;Signal;HPM_P1;HPM_P2
2022/09/25 00:00:18;;;;;;;14.33;8.60;;;;;;;;;;5094340;28;20020;-77
2022/09/25 00:02:43;;;;;;;15.48;8.55;;;;;;;;;;5094280;28;20755;-77
2022/09/25 00:05:09;;;;;;;12.87;8.50;;;;;;;;;;5094295;28;20028;-77
2022/09/25 00:07:34;;;;;;;15.18;8.70;;;;;;;;;;5094119;28;20271;-77
2022/09/25 00:09:59;;;;;;;13.50;8.67;;;;;;;;;;5092770;28;20024;-77
2022/09/25 00:12:24;;;;;;;12.40;8.60;;;;;;;;;;5095109;28;20281;-77
2022/09/25 00:14:50;;;;;;;12.47;8.33;;;;;;;;;;5096609;28;20260;-77
2022/09/25 00:17:16;;;;;;;11.95;8.27;;;;;;;;;;5095972;28;20332;-77
2022/09/25 00:19:50;;;;;;;13.18;8.25;;;;;;;;;;5095691;28;20023;-77
2022/09/25 00:22:20;;;;;;;13.43;8.45;;;;;;;;;;5095033;28;20016;-77
2022/09/25 00:24:46;;;;;;;14.20;8.73;;;;;;;;;;5094167;28;20050;-77
2022/09/25 00:27:11;;;;;;;12.43;8.60;;;;;;;;;;5092653;28;20477;-77
2022/09/25 00:29:38;;;;;;;16.98;8.93;;;;;;;;;;5094017;28;20043;-77
2022/09/25 00:32:05;;;;;;;15.77;9.02;;;;;;;;;;5093700;28;20032;-77
2022/09/25 00:34:31;;;;;;;15.23;9.30;;;;;;;;;;5092455;28;20157;-77
2022/09/25 00:36:56;;;;;;;14.63;8.77;;;;;;;;;;5093929;28;20073;-76
2022/09/25 00:39:21;;;;;;;13.38;8.45;;;;;;;;;;5092648;28;20024;-77
2022/09/25 00:41:46;;;;;;;11.35;8.20;;;;;;;;;;5093567;28;20059;-77
2022/09/25 00:44:51;;;;;;;13.80;8.87;;;;;;;;;;5093924;28;20404;-77
2022/09/25 00:47:23;;;;;;;16.60;9.30;;;;;;;;;;5093533;28;20302;-77
2022/09/25 00:49:51;;;;;;;11.45;8.43;;;;;;;;;;5093414;28;20092;-77
2022/09/25 00:52:17;;;;;;;16.45;8.52;;;;;;;;;;5092001;28;20035;-77
2022/09/25 00:54:56;;;;;;;13.52;8.55;;;;;;;;;;5092153;28;20028;-77
2022/09/25 00:57:25;;;;;;;14.18;8.10;;;;;;;;;;5092187;28;20401;-77
2022/09/25 00:59:55;;;;;;;13.30;8.82;;;;;;;;;;5093314;28;20107;-77
2022/09/25 01:02:33;;;;;;;11.95;7.78;;;;;;;;;;5093328;28;20024;-77
2022/09/25 01:05:03;;;;;;;13.55;8.07;;;;;;;;;;5093547;28;20055;-77
2022/09/25 01:07:30;;;;;;;13.63;8.48;;;;;;;;;;5093310;28;20473;-77
2022/09/25 01:09:58;;;;;;;12.65;8.10;;;;;;;;;;5093525;28;20023;-77
2022/09/25 01:12:24;;;;;;;12.00;8.05;;;;;;;;;;5091936;28;20028;-77
2022/09/25 01:14:49;;;;;;;12.98;8.35;;;;;;;;;;5093583;28;20443;-77
2022/09/25 01:17:32;;;;;;;10.93;7.57;;;;;;;;;;5093367;28;20024;-78
2022/09/25 01:20:30;;;;;;;11.05;7.57;;;;;;;;;;5093159;28;20069;-77
2022/09/25 01:23:34;;;;;;;10.23;7.10;;;;;;;;;;5097576;28;20012;-77
2022/09/25 01:26:53;;;;;;;10.25;7.50;;;;;;;;;;5097458;28;20162;-77
2022/09/25 01:29:24;;;;;;;10.95;7.28;;;;;;;;;;5037984;28;20580;-78
2022/09/25 01:32:02;;;;;;;9.52;7.00;;;;;;;;;;5097447;28;20396;-77
2022/09/25 01:34:48;;;;;;;10.77;7.20;;;;;;;;;;5097349;28;20085;-77
2022/09/25 01:37:23;;;;;;;8.68;6.95;;;;;;;;;;5095691;28;20481;-77
2022/09/25 01:40:04;;;;;;;10.98;7.63;;;;;;;;;;5097040;28;20068;-77
2022/09/25 01:42:38;;;;;;;11.25;7.22;;;;;;;;;;5097331;28;20393;-77
2022/09/25 01:45:06;;;;;;;12.13;7.25;;;;;;;;;;5097085;28;20100;-77
2022/09/25 01:47:38;;;;;;;11.18;7.30;;;;;;;;;;5096008;28;20114;-77
2022/09/25 01:50:12;;;;;;;12.13;7.20;;;;;;;;;;5097927;28;20088;-77
2022/09/25 01:52:43;;;;;;;9.77;6.93;;;;;;;;;;5095408;28;20036;-77
2022/09/25 01:55:16;;;;;;;12.23;7.40;;;;;;;;;;5095346;28;20408;-77
2022/09/25 01:57:49;;;;;;;8.60;6.65;;;;;;;;;;5096934;28;20027;-77
2022/09/25 02:00:20;;;;;;;9.30;6.85;;;;;;;;;;5096861;28;20030;-77
2022/09/25 02:02:54;;;;;;;10.27;6.70;;;;;;;;;;5096832;28;20089;-77
2022/09/25 02:05:26;;;;;;;8.95;6.88;;;;;;;;;;5095271;28;20024;-77
2022/09/25 02:07:59;;;;;;;12.02;7.22;;;;;;;;;;5096137;28;20077;-77
2022/09/25 02:10:56;;;;;;;10.30;7.30;;;;;;;;;;5096382;28;20051;-77
2022/09/25 02:13:25;;;;;;;10.13;7.25;;;;;;;;;;5095495;28;20085;-77
2022/09/25 02:16:01;;;;;;;8.38;6.70;;;;;;;;;;5096060;28;20024;-77
2022/09/25 02:21:26;;;;;;;11.70;6.97;;;;;;;;;;5096842;28;20503;-78
2022/09/25 02:24:01;;;;;;;9.05;6.53;;;;;;;;;;5096936;28;20031;-77
2022/09/25 02:26:31;;;;;;;9.68;7.10;;;;;;;;;;5096695;28;20035;-77
2022/09/25 02:28:58;;;;;;;11.13;7.30;;;;;;;;;;5096878;28;20024;-77
2022/09/25 02:31:34;;;;;;;10.27;7.07;;;;;;;;;;5096535;28;20049;-77
2022/09/25 02:34:00;;;;;;;9.20;6.35;;;;;;;;;;5093926;28;20062;-77
2022/09/25 02:36:25;;;;;;;9.23;6.43;;;;;;;;;;5096366;28;20056;-78
2022/09/25 02:38:53;;;;;;;11.55;6.60;;;;;;;;;;5096360;28;20028;-78
2022/09/25 02:41:35;;;;;;;9.95;6.82;;;;;;;;;;5096359;28;20435;-77
2022/09/25 02:44:30;;;;;;;8.63;6.35;;;;;;;;;;5096634;28;20107;-78
2022/09/25 02:47:17;;;;;;;9.18;6.70;;;;;;;;;;5087772;28;20081;-76
2022/09/25 02:49:53;;;;;;;11.40;6.35;;;;;;;;;;5096727;28;20088;-77
2022/09/25 02:52:31;;;;;;;11.43;6.38;;;;;;;;;;5097992;28;20091;-77
2022/09/25 02:55:06;;;;;;;9.05;6.45;;;;;;;;;;5096576;28;20034;-77
2022/09/25 02:57:55;;;;;;;10.05;6.75;;;;;;;;;;5096563;28;20027;-77
2022/09/25 03:00:22;;;;;;;8.85;5.85;;;;;;;;;;5097910;28;20080;-77
2022/09/25 03:02:54;;;;;;;11.48;6.90;;;;;;;;;;5097884;28;20024;-77
2022/09/25 03:05:21;;;;;;;9.80;6.57;;;;;;;;;;5097955;28;20023;-77
2022/09/25 03:10:32;;;;;;;9.65;6.15;;;;;;;;;;5098132;28;20523;-77
2022/09/25 03:13:15;;;;;;;10.65;6.15;;;;;;;;;;5095654;28;20061;-77
2022/09/25 03:15:44;;;;;;;8.15;5.95;;;;;;;;;;5095775;28;20028;-77
2022/09/25 03:18:11;;;;;;;10.55;5.72;;;;;;;;;;5095005;28;20066;-77
2022/09/25 03:20:36;;;;;;;9.48;6.15;;;;;;;;;;5095005;28;20052;-77
2022/09/25 03:23:01;;;;;;;8.52;6.50;;;;;;;;;;5095146;28;20035;-77
2022/09/25 03:25:27;;;;;;;10.32;6.10;;;;;;;;;;5095159;28;20028;-77
2022/09/25 03:27:52;;;;;;;7.87;5.90;;;;;;;;;;5096057;28;20051;-77
2022/09/25 03:30:17;;;;;;;9.67;6.00;;;;;;;;;;5097401;28;20264;-77
2022/09/25 03:32:43;;;;;;;8.27;5.93;;;;;;;;;;5097087;28;20268;-77
2022/09/25 03:35:08;;;;;;;9.82;6.28;;;;;;;;;;5097277;28;20261;-77
2022/09/25 03:37:33;;;;;;;8.10;5.75;;;;;;;;;;5094787;28;20027;-78
2022/09/25 03:40:00;;;;;;;11.33;6.30;;;;;;;;;;5095675;28;20085;-77
2022/09/25 03:42:27;;;;;;;8.57;5.57;;;;;;;;;;5095206;28;20257;-78
2022/09/25 03:44:52;;;;;;;11.98;6.20;;;;;;;;;;5093883;28;20408;-77
2022/09/25 03:47:17;;;;;;;10.15;6.07;;;;;;;;;;5094624;28;20024;-77
2022/09/25 03:49:42;;;;;;;10.73;5.80;;;;;;;;;;5094505;28;20446;-77
2022/09/25 03:52:11;;;;;;;10.07;6.00;;;;;;;;;;5096545;28;20664;-77
2022/09/25 03:54:36;;;;;;;7.25;5.50;;;;;;;;;;5097043;28;20322;-77
2022/09/25 03:57:01;;;;;;;9.63;5.83;;;;;;;;;;5095266;28;20439;-77
2022/09/25 03:59:27;;;;;;;11.88;5.90;;;;;;;;;;5095508;28;20290;-77
2022/09/25 04:01:52;;;;;;;9.33;6.27;;;;;;;;;;5096154;28;20197;-78
2022/09/25 04:04:17;;;;;;;15.47;6.00;;;;;;;;;;5097308;28;20261;-78
2022/09/25 04:06:42;;;;;;;11.00;5.87;;;;;;;;;;5096613;28;20268;-77
2022/09/25 04:09:07;;;;;;;10.18;5.90;;;;;;;;;;5097311;28;20256;-77
2022/09/25 04:11:34;;;;;;;11.60;6.07;;;;;;;;;;5096036;28;20024;-77
2022/09/25 04:14:00;;;;;;;7.90;5.65;;;;;;;;;;5097298;28;20625;-77
2022/09/25 04:16:26;;;;;;;10.38;6.60;;;;;;;;;;5097313;28;20020;-77
2022/09/25 04:18:51;;;;;;;8.45;6.35;;;;;;;;;;5097155;28;20093;-77
2022/09/25 04:21:17;;;;;;;11.57;5.93;;;;;;;;;;5095911;28;20469;-78
2022/09/25 04:24:46;;;;;;;10.65;6.25;;;;;;;;;;5095775;28;20491;-77
2022/09/25 04:26:27;;;;;;;10.73;6.15;;;;;;;;;;5096563;28;20082;-77
2022/09/25 04:28:53;;;;;;;7.88;5.85;;;;;;;;;;5096624;28;20394;-77
2022/09/25 04:31:19;;;;;;;13.55;6.22;;;;;;;;;;5095570;28;20051;-78
2022/09/25 04:33:47;;;;;;;11.73;6.03;;;;;;;;;;5096964;28;20074;-77
2022/09/25 04:36:14;;;;;;;9.88;5.85;;;;;;;;;;5095890;28;20611;-77
2022/09/25 04:38:39;;;;;;;7.90;5.40;;;;;;;;;;5096823;28;20528;-77
2022/09/25 04:41:05;;;;;;;8.85;5.90;;;;;;;;;;5095287;28;20112;-77
2022/09/25 04:43:31;;;;;;;10.32;5.50;;;;;;;;;;5096769;28;20020;-78
2022/09/25 04:46:01;;;;;;;10.60;5.72;;;;;;;;;;5097061;28;20116;-77
2022/09/25 04:48:26;;;;;;;9.48;5.45;;;;;;;;;;5096107;28;20023;-77
2022/09/25 04:50:52;;;;;;;12.38;5.50;;;;;;;;;;5095026;28;20050;-77
2022/09/25 04:53:17;;;;;;;10.93;6.53;;;;;;;;;;5096335;28;20055;-77
2022/09/25 04:55:44;;;;;;;11.85;6.03;;;;;;;;;;5095453;28;20253;-77
2022/09/25 04:58:10;;;;;;;9.50;5.78;;;;;;;;;;5096343;28;20027;-77
2022/09/25 05:00:37;;;;;;;8.32;5.65;;;;;;;;;;5096531;28;20020;-77
2022/09/25 05:03:03;;;;;;;8.25;5.00;;;;;;;;;;5094957;28;20035;-77
2022/09/25 05:05:29;;;;;;;6.63;4.85;;;;;;;;;;5094316;28;20028;-77
2022/09/25 05:07:57;;;;;;;8.63;5.18;;;;;;;;;;5095811;28;20038;-78
2022/09/25 05:10:26;;;;;;;9.77;5.68;;;;;;;;;;5093271;28;20115;-77
2022/09/25 05:13:02;;;;;;;10.88;5.28;;;;;;;;;;5093468;28;20016;-78
2022/09/25 05:15:30;;;;;;;13.07;5.15;;;;;;;;;;5093778;28;20105;-77
2022/09/25 05:18:17;;;;;;;8.63;5.03;;;;;;;;;;5093342;28;20024;-77
2022/09/25 05:20:42;;;;;;;8.70;5.30;;;;;;;;;;5091922;28;20012;-77
2022/09/25 05:23:08;;;;;;;7.23;5.13;;;;;;;;;;5093198;28;20443;-77
2022/09/25 05:25:34;;;;;;;9.20;5.20;;;;;;;;;;5093146;28;20673;-77
2022/09/25 05:28:00;;;;;;;11.52;5.28;;;;;;;;;;5091795;28;20031;-77
2022/09/25 05:30:30;;;;;;;9.13;5.50;;;;;;;;;;5093014;28;20128;-77
2022/09/25 05:32:59;;;;;;;11.18;5.80;;;;;;;;;;5091792;28;20028;-77
2022/09/25 05:35:30;;;;;;;7.57;5.10;;;;;;;;;;5093072;28;20063;-77
2022/09/25 05:37:55;;;;;;;10.70;5.53;;;;;;;;;;5093334;28;20024;-77
2022/09/25 05:40:22;;;;;;;15.93;6.50;;;;;;;;;;5093361;28;20394;-78
2022/09/25 05:42:47;;;;;;;10.45;5.18;;;;;;;;;;5093204;28;20427;-77
2022/09/25 05:45:14;;;;;;;8.02;5.40;;;;;;;;;;5093046;28;20035;-77
2022/09/25 05:47:40;;;;;;;10.20;5.28;;;;;;;;;;5093118;28;20477;-77
2022/09/25 05:50:08;;;;;;;33.75;13.15;;;;;;;;;;5093079;28;20473;-77
2022/09/25 05:52:34;;;;;;;20.25;10.05;;;;;;;;;;5093042;28;20107;-77
2022/09/25 05:55:02;;;;;;;13.27;7.70;;;;;;;;;;5092859;28;20020;-76
2022/09/25 05:57:29;;;;;;;10.48;6.70;;;;;;;;;;5093054;28;20058;-77
2022/09/25 05:59:55;;;;;;;11.45;7.82;;;;;;;;;;5092178;28;20047;-78
2022/09/25 06:02:20;;;;;;;14.57;6.70;;;;;;;;;;5093263;28;20518;-76
2022/09/25 06:04:45;;;;;;;8.73;5.93;;;;;;;;;;5093375;28;20713;-77
2022/09/25 06:07:10;;;;;;;9.43;6.00;;;;;;;;;;5093988;28;20737;-78
2022/09/25 06:09:35;;;;;;;7.37;5.50;;;;;;;;;;5098290;28;20748;-78
2022/09/25 06:12:01;;;;;;;9.13;5.50;;;;;;;;;;5096916;28;20627;-77
2022/09/25 06:14:27;;;;;;;9.80;5.53;;;;;;;;;;5096712;28;20259;-77
2022/09/25 06:16:52;;;;;;;9.40;5.40;;;;;;;;;;5096794;28;20537;-76
2022/09/25 06:19:17;;;;;;;8.18;5.32;;;;;;;;;;5095491;28;20036;-77
2022/09/25 06:21:43;;;;;;;11.23;5.53;;;;;;;;;;5096735;28;20047;-77
2022/09/25 06:24:12;;;;;;;7.47;5.30;;;;;;;;;;5097305;28;20107;-77
2022/09/25 06:26:37;;;;;;;9.35;5.75;;;;;;;;;;5096958;28;20489;-79
2022/09/25 06:29:03;;;;;;;8.88;5.40;;;;;;;;;;5095590;28;20020;-77
2022/09/25 06:31:28;;;;;;;10.48;5.80;;;;;;;;;;5096268;28;20027;-77
2022/09/25 06:33:54;;;;;;;8.98;5.25;;;;;;;;;;5097754;28;20031;-78
2022/09/25 06:36:19;;;;;;;9.32;5.60;;;;;;;;;;5098135;28;20023;-78
2022/09/25 06:38:45;;;;;;;8.48;5.70;;;;;;;;;;5097303;28;20107;-77
2022/09/25 06:41:11;;;;;;;9.48;5.72;;;;;;;;;;5097394;28;20020;-77
2022/09/25 06:43:36;;;;;;;10.88;5.75;;;;;;;;;;5097226;28;20046;-77
2022/09/25 06:46:02;;;;;;;10.68;5.57;;;;;;;;;;5094752;28;20489;-77
2022/09/25 06:48:29;;;;;;;12.10;6.00;;;;;;;;;;5096344;28;20521;-77
2022/09/25 06:50:56;;;;;;;9.68;6.00;;;;;;;;;;5095031;28;20086;-77
2022/09/25 06:53:24;;;;;;;11.15;5.85;;;;;;;;;;5095931;28;20020;-77
2022/09/25 06:55:50;;;;;;;9.88;5.63;;;;;;;;;;5095859;28;20035;-77
2022/09/25 06:58:21;;;;;;;9.20;5.90;;;;;;;;;;5094441;28;20016;-77
2022/09/25 07:00:51;;;;;;;7.90;5.70;;;;;;;;;;5097266;28;20027;-77
2022/09/25 07:06:03;;;;;;;11.05;5.65;;;;;;;;;;5096743;28;20031;-77
2022/09/25 07:08:28;;;;;;;8.90;6.03;;;;;;;;;;5094013;28;20111;-78
2022/09/25 07:10:55;;;;;;;11.15;6.20;;;;;;;;;;5095279;28;20524;-77
2022/09/25 07:13:26;;;;;;;9.75;5.97;;;;;;;;;;5094077;28;20024;-77
2022/09/25 07:15:56;;;;;;;10.93;6.10;;;;;;;;;;5095548;28;20032;-76
2022/09/25 07:18:23;;;;;;;9.68;6.45;;;;;;;;;;5094728;28;20028;-77
2022/09/25 07:20:49;;;;;;;10.48;6.50;;;;;;;;;;5095298;28;20073;-78
2022/09/25 07:23:16;;;;;;;8.95;6.40;;;;;;;;;;5093980;28;20020;-77
2022/09/25 07:25:43;;;;;;;9.38;6.13;;;;;;;;;;5095244;28;20488;-77
2022/09/25 07:28:09;;;;;;;13.30;6.25;;;;;;;;;;5095306;28;20046;-77
2022/09/25 07:30:35;;;;;;;8.55;5.90;;;;;;;;;;5094867;28;20055;-77
2022/09/25 07:33:01;;;;;;;8.75;6.13;;;;;;;;;;5095160;28;20055;-77
2022/09/25 07:35:26;;;;;;;11.55;6.32;;;;;;;;;;5095083;28;20055;-77
2022/09/25 07:37:55;;;;;;;10.57;6.15;;;;;;;;;;5094823;28;20126;-77
2022/09/25 07:40:20;;;;;;;8.90;6.03;;;;;;;;;;5094721;28;20023;-77
2022/09/25 07:42:45;;;;;;;12.40;6.95;;;;;;;;;;5095117;28;20384;-77
2022/09/25 07:45:11;;;;;;;10.23;6.00;;;;;;;;;;5094541;28;20077;-77
2022/09/25 07:47:36;;;;;;;9.43;6.03;;;;;;;;;;5094798;28;20020;-76
2022/09/25 07:50:01;;;;;;;9.90;5.88;;;;;;;;;;5093522;28;20020;-76
2022/09/25 07:52:26;;;;;;;12.43;6.30;;;;;;;;;;5094364;28;20024;-77
2022/09/25 07:54:51;;;;;;;7.97;5.87;;;;;;;;;;5094874;28;20749;-77
2022/09/25 07:57:19;;;;;;;9.87;6.00;;;;;;;;;;5096160;28;20756;-77
2022/09/25 07:59:47;;;;;;;8.82;6.55;;;;;;;;;;5094768;28;20267;-77
2022/09/25 08:02:12;;;;;;;11.02;6.53;;;;;;;;;;5095847;28;20024;-77
2022/09/25 08:04:38;;;;;;;9.43;6.38;;;;;;;;;;5093875;28;20447;-77
2022/09/25 08:07:03;;;;;;;9.48;6.22;;;;;;;;;;5096605;28;20039;-78
2022/09/25 08:09:29;;;;;;;10.73;5.85;;;;;;;;;;5094274;28;20027;-77
2022/09/25 08:11:54;;;;;;;11.10;6.00;;;;;;;;;;5094392;28;20165;-78
2022/09/25 08:14:20;;;;;;;7.80;5.53;;;;;;;;;;5094993;28;20020;-78
2022/09/25 08:16:46;;;;;;;9.85;6.07;;;;;;;;;;5095475;28;20448;-78
2022/09/25 08:19:12;;;;;;;6.93;5.28;;;;;;;;;;5094275;28;20030;-77
2022/09/25 08:21:38;;;;;;;10.82;5.65;;;;;;;;;;5092731;28;20114;-76
2022/09/25 08:24:03;;;;;;;8.38;5.10;;;;;;;;;;5094537;28;20058;-77
2022/09/25 08:26:29;;;;;;;8.63;5.30;;;;;;;;;;5095334;28;20076;-76
2022/09/25 08:28:54;;;;;;;7.60;5.20;;;;;;;;;;5094077;28;20028;-76
2022/09/25 08:31:20;;;;;;;12.35;5.47;;;;;;;;;;5094061;28;20055;-76
2022/09/25 08:33:47;;;;;;;10.70;5.80;;;;;;;;;;5094016;28;20016;-77
2022/09/25 08:36:13;;;;;;;11.95;5.55;;;;;;;;;;5095109;28;20035;-77
2022/09/25 08:38:38;;;;;;;9.70;5.60;;;;;;;;;;5094187;28;20028;-77
2022/09/25 08:41:14;;;;;;;9.90;5.83;;;;;;;;;;5095797;28;20026;-79
2022/09/25 08:43:43;;;;;;;8.80;5.60;;;;;;;;;;5092726;28;20315;-77
2022/09/25 08:49:05;;;;;;;9.40;5.75;;;;;;;;;;5095081;28;20105;-77
2022/09/25 08:52:00;;;;;;;8.40;5.75;;;;;;;;;;5093398;28;20028;-77
2022/09/25 08:54:28;;;;;;;8.40;5.50;;;;;;;;;;5093109;28;20435;-77
2022/09/25 08:56:58;;;;;;;9.75;5.93;;;;;;;;;;5094839;28;20035;-77
2022/09/25 08:59:34;;;;;;;11.77;6.03;;;;;;;;;;5094541;28;20028;-77
2022/09/25 09:02:09;;;;;;;12.65;6.28;;;;;;;;;;5094705;28;20040;-77
2022/09/25 09:04:45;;;;;;;11.85;6.03;;;;;;;;;;5093214;28;20020;-77
2022/09/25 09:07:14;;;;;;;12.68;5.90;;;;;;;;;;5093387;28;20028;-77
2022/09/25 09:09:46;;;;;;;10.55;6.20;;;;;;;;;;5094242;28;20074;-77
2022/09/25 09:12:20;;;;;;;8.02;5.82;;;;;;;;;;5093593;28;20020;-77
2022/09/25 09:14:49;;;;;;;8.05;5.35;;;;;;;;;;5092208;28;20046;-76
2022/09/25 09:17:19;;;;;;;8.80;5.75;;;;;;;;;;5093141;28;20028;-77
2022/09/25 09:19:47;;;;;;;9.10;6.07;;;;;;;;;;5093309;28;20043;-76
2022/09/25 09:22:14;;;;;;;8.75;6.20;;;;;;;;;;5092833;28;20076;-77
2022/09/25 09:24:56;;;;;;;8.98;6.38;;;;;;;;;;5094103;28;20032;-77
2022/09/25 09:27:31;;;;;;;9.65;6.60;;;;;;;;;;5092976;28;20549;-77
2022/09/25 09:30:14;;;;;;;9.82;6.85;;;;;;;;;;5094048;28;20024;-77
2022/09/25 09:33:09;;;;;;;20.58;6.80;;;;;;;;;;5094696;28;20028;-77
2022/09/25 09:36:04;;;;;;;11.85;6.68;;;;;;;;;;5093969;28;20382;-78
2022/09/25 09:38:47;;;;;;;11.60;6.93;;;;;;;;;;5092900;28;20035;-79
2022/09/25 09:41:36;;;;;;;10.57;6.75;;;;;;;;;;5093485;28;20024;-76
2022/09/25 09:44:22;;;;;;;10.40;6.82;;;;;;;;;;5097408;28;20473;-77
2022/09/25 09:47:18;;;;;;;10.20;7.25;;;;;;;;;;5097483;28;20097;-76
2022/09/25 09:49:52;;;;;;;12.98;6.63;;;;;;;;;;5097357;28;20111;-77
2022/09/25 09:52:38;;;;;;;9.05;6.63;;;;;;;;;;5097823;28;20093;-77
2022/09/25 09:55:41;;;;;;;10.50;7.00;;;;;;;;;;5097071;28;20504;-77
2022/09/25 09:58:38;;;;;;;8.85;6.20;;;;;;;;;;5097306;28;20036;-76
2022/09/25 10:01:04;;;;;;;11.65;6.95;;;;;;;;;;5097101;28;20020;-77
2022/09/25 10:03:35;;;;;;;10.40;6.85;;;;;;;;;;5097392;28;20473;-78
2022/09/25 10:06:07;;;;;;;9.93;6.85;;;;;;;;;;5097806;28;20051;-77
2022/09/25 10:08:33;;;;;;;11.75;7.85;;;;;;;;;;5097388;28;20028;-77
2022/09/25 10:11:00;;;;;;;10.35;7.30;;;;;;;;;;5095215;28;20122;-77
2022/09/25 10:13:31;;;;;;;10.38;7.03;;;;;;;;;;5096587;28;20024;-77
2022/09/25 10:16:00;;;;;;;9.77;7.28;;;;;;;;;;5096716;28;20043;-77
2022/09/25 10:18:33;;;;;;;8.73;6.55;;;;;;;;;;5096725;28;20024;-77
2022/09/25 10:21:05;;;;;;;10.93;7.32;;;;;;;;;;5095327;28;20154;-77
2022/09/25 10:23:45;;;;;;;12.18;6.60;;;;;;;;;;5095154;28;20028;-76
2022/09/25 10:26:26;;;;;;;11.35;6.63;;;;;;;;;;5096161;28;20465;-77
2022/09/25 10:28:52;;;;;;;13.35;7.18;;;;;;;;;;5096347;28;20136;-76
2022/09/25 10:31:19;;;;;;;10.10;6.50;;;;;;;;;;5095300;28;20544;-76
2022/09/25 10:34:05;;;;;;;9.00;6.40;;;;;;;;;;5096662;28;20161;-78
2022/09/25 10:36:37;;;;;;;8.38;6.28;;;;;;;;;;5098096;28;20032;-77
2022/09/25 10:39:04;;;;;;;9.95;6.78;;;;;;;;;;5097456;28;20016;-78
2022/09/25 10:41:41;;;;;;;9.43;6.47;;;;;;;;;;5098215;28;20050;-77
2022/09/25 10:44:19;;;;;;;8.07;5.85;;;;;;;;;;5097264;28;20035;-77
2022/09/25 10:52:14;;;;;;;7.10;5.25;;;;;;;;;;5095827;28;20089;-77
2022/09/25 10:54:40;;;;;;;6.70;5.18;;;;;;;;;;5094543;28;20028;-77
2022/09/25 10:57:33;;;;;;;8.15;5.55;;;;;;;;;;5096033;28;20031;-77
2022/09/25 10:59:59;;;;;;;8.77;5.28;;;;;;;;;;5094350;28;20397;-79
2022/09/25 11:02:34;;;;;;;11.80;5.28;;;;;;;;;;5096349;28;20023;-76
2022/09/25 11:05:00;;;;;;;8.35;5.03;;;;;;;;;;5096739;28;20020;-78
2022/09/25 11:07:26;;;;;;;7.20;4.55;;;;;;;;;;5094984;28;20027;-78
2022/09/25 11:09:52;;;;;;;10.13;5.18;;;;;;;;;;5095537;28;20028;-78
2022/09/25 11:12:22;;;;;;;7.47;4.63;;;;;;;;;;5096328;28;20050;-78
2022/09/25 11:15:19;;;;;;;6.82;4.75;;;;;;;;;;5096766;28;20473;-78
2022/09/25 11:17:48;;;;;;;5.28;4.30;;;;;;;;;;5094498;28;20421;-77
2022/09/25 11:20:28;;;;;;;8.55;4.40;;;;;;;;;;5095285;28;20034;-77
2022/09/25 11:23:18;;;;;;;6.72;4.22;;;;;;;;;;5094370;28;20020;-77
2022/09/25 11:25:56;;;;;;;7.50;4.50;;;;;;;;;;5096172;28;20032;-77
2022/09/25 11:28:32;;;;;;;7.55;4.30;;;;;;;;;;5096118;28;20016;-76
2022/09/25 11:31:20;;;;;;;10.68;4.53;;;;;;;;;;5093831;28;20024;-77
2022/09/25 11:33:56;;;;;;;7.80;4.03;;;;;;;;;;5095603;28;20031;-77
2022/09/25 11:36:35;;;;;;;5.03;3.35;;;;;;;;;;5093916;28;20028;-77
2022/09/25 11:42:13;;;;;;;9.10;5.68;;;;;;;;;;5095381;28;20042;-77
2022/09/25 11:44:53;;;;;;;7.88;4.10;;;;;;;;;;5094854;28;20404;-77
2022/09/25 11:47:39;;;;;;;7.38;3.88;;;;;;;;;;5095026;28;20028;-78
2022/09/25 11:50:14;;;;;;;4.72;3.58;;;;;;;;;;5096946;28;20042;-78
2022/09/25 11:52:56;;;;;;;7.60;3.25;;;;;;;;;;5099577;28;20020;-77
2022/09/25 11:56:09;;;;;;;5.43;3.90;;;;;;;;;;5099876;28;20024;-77
2022/09/25 11:58:37;;;;;;;5.85;3.70;;;;;;;;;;5018705;28;20107;-77
2022/09/25 12:01:15;;;;;;;5.28;3.40;;;;;;;;;;5016235;28;20084;-76
2022/09/25 12:04:01;;;;;;;6.40;3.83;;;;;;;;;;5064249;28;20122;-77
2022/09/25 12:06:54;;;;;;;5.13;3.17;;;;;;;;;;5094807;28;20069;-77
2022/09/25 12:10:03;;;;;;;4.97;3.38;;;;;;;;;;5095255;28;20024;-77
2022/09/25 12:13:01;;;;;;;5.63;3.35;;;;;;;;;;5093518;28;20020;-78
2022/09/25 12:15:49;;;;;;;6.07;3.67;;;;;;;;;;5094187;28;20027;-78
2022/09/25 12:18:23;;;;;;;6.07;3.53;;;;;;;;;;5093082;28;20028;-77
2022/09/25 12:21:08;;;;;;;4.50;3.58;;;;;;;;;;5094862;28;20381;-78
2022/09/25 12:23:46;;;;;;;9.13;3.47;;;;;;;;;;5094636;28;20134;-77
2022/09/25 12:26:35;;;;;;;4.60;3.13;;;;;;;;;;5092734;28;20024;-77
2022/09/25 12:29:03;;;;;;;4.18;2.80;;;;;;;;;;5094118;28;20028;-77
2022/09/25 12:31:40;;;;;;;4.60;3.10;;;;;;;;;;5095134;28;20085;-78
2022/09/25 12:34:31;;;;;;;3.95;2.75;;;;;;;;;;5094190;28;20469;-77
2022/09/25 12:37:23;;;;;;;6.28;3.00;;;;;;;;;;5094357;28;20080;-77
2022/09/25 12:39:54;;;;;;;4.03;2.65;;;;;;;;;;5094706;28;20133;-77
2022/09/25 12:42:43;;;;;;;8.20;2.78;;;;;;;;;;5094340;28;20048;-77
2022/09/25 12:45:16;;;;;;;5.88;2.90;;;;;;;;;;5094021;28;20051;-77
2022/09/25 12:47:45;;;;;;;;;;;;;;;;;;5094033;28;20362;-77
2022/09/25 12:50:48;;;;;;;6.75;3.20;;;;;;;;;;5095111;28;19908;-77
2022/09/25 12:53:23;;;;;;;4.60;3.22;;;;;;;;;;5069978;28;20096;-78
2022/09/25 12:55:58;;;;;;;4.30;2.85;;;;;;;;;;5094069;28;20024;-78
2022/09/25 12:58:36;;;;;;;3.42;2.75;;;;;;;;;;5092696;28;20024;-77
2022/09/25 13:01:13;;;;;;;6.20;3.20;;;;;;;;;;5092246;28;20035;-77
2022/09/25 13:03:49;;;;;;;5.82;2.90;;;;;;;;;;5092263;28;20031;-77
2022/09/25 13:06:32;;;;;;;4.07;2.90;;;;;;;;;;5094280;28;20378;-77
2022/09/25 13:09:13;;;;;;;5.33;2.83;;;;;;;;;;5093147;28;20107;-77
2022/09/25 13:11:45;;;;;;;3.65;2.88;;;;;;;;;;5094200;28;20031;-77
2022/09/25 13:14:26;;;;;;;4.15;2.90;;;;;;;;;;5093539;28;20020;-76
2022/09/25 13:16:51;;;;;;;3.65;3.00;;;;;;;;;;5093127;28;20055;-77
2022/09/25 13:19:28;;;;;;;6.07;2.83;;;;;;;;;;5093197;28;20113;-77
2022/09/25 13:22:19;;;;;;;4.85;2.95;;;;;;;;;;5094146;28;20512;-77
2022/09/25 13:24:51;;;;;;;4.93;2.90;;;;;;;;;;5094639;28;20032;-77
2022/09/25 13:27:20;;;;;;;4.00;2.67;;;;;;;;;;5093571;28;20374;-77
2022/09/25 13:29:53;;;;;;;5.80;2.70;;;;;;;;;;5093969;28;20055;-76
2022/09/25 13:32:22;;;;;;;8.07;3.00;;;;;;;;;;5093224;28;20438;-77
2022/09/25 13:34:52;;;;;;;3.63;2.80;;;;;;;;;;5093373;28;20031;-77
2022/09/25 13:37:24;;;;;;;6.97;2.70;;;;;;;;;;5093109;28;20036;-77
2022/09/25 13:42:37;;;;;;;5.25;2.70;;;;;;;;;;5095058;28;20019;-77
2022/09/25 13:45:31;;;;;;;4.65;2.67;;;;;;;;;;5093875;28;20032;-77
2022/09/25 13:48:11;;;;;;;3.72;2.90;;;;;;;;;;5092435;28;20042;-77
2022/09/25 13:50:41;;;;;;;4.90;2.75;;;;;;;;;;5093156;28;20477;-78
2022/09/25 13:53:17;;;;;;;6.82;2.78;;;;;;;;;;5092037;28;20121;-79
2022/09/25 13:55:49;;;;;;;5.05;2.88;;;;;;;;;;5093543;28;20474;-77
2022/09/25 13:58:22;;;;;;;4.55;2.95;;;;;;;;;;5093349;28;20388;-78
2022/09/25 14:00:54;;;;;;;6.43;2.85;;;;;;;;;;5094611;28;20077;-78
2022/09/25 14:03:40;;;;;;;6.60;2.63;;;;;;;;;;5093985;28;20020;-77
2022/09/25 14:06:18;;;;;;;3.80;2.80;;;;;;;;;;5095055;28;20013;-77
2022/09/25 14:08:45;;;;;;;4.15;2.80;;;;;;;;;;5094998;28;20481;-78
2022/09/25 14:11:15;;;;;;;4.30;2.80;;;;;;;;;;5092072;28;20020;-77
2022/09/25 14:13:45;;;;;;;6.57;3.20;;;;;;;;;;5093035;28;20121;-77
2022/09/25 14:16:28;;;;;;;6.88;3.90;;;;;;;;;;5093138;28;20024;-77
2022/09/25 14:18:56;;;;;;;5.20;3.53;;;;;;;;;;5091773;28;20043;-77
2022/09/25 14:21:22;;;;;;;5.38;4.20;;;;;;;;;;5092653;28;20032;-77
2022/09/25 14:23:50;;;;;;;8.85;4.07;;;;;;;;;;5093051;28;20036;-77
2022/09/25 14:26:21;;;;;;;9.65;4.32;;;;;;;;;;5091463;28;20024;-77
2022/09/25 14:28:48;;;;;;;7.10;3.92;;;;;;;;;;5094935;28;20027;-77
2022/09/25 14:31:31;;;;;;;5.47;3.78;;;;;;;;;;5096332;28;20063;-77
2022/09/25 14:34:37;;;;;;;5.43;3.83;;;;;;;;;;5096430;28;20020;-77
2022/09/25 14:37:13;;;;;;;5.70;4.18;;;;;;;;;;5094738;28;20035;-77
2022/09/25 14:40:01;;;;;;;8.23;3.63;;;;;;;;;;5096089;28;20508;-77
2022/09/25 14:43:04;;;;;;;5.32;3.63;;;;;;;;;;5096328;28;20023;-77
2022/09/25 14:45:55;;;;;;;6.05;4.13;;;;;;;;;;5095898;28;20055;-77
2022/09/25 14:48:43;;;;;;;7.70;4.25;;;;;;;;;;5096359;28;20043;-77
2022/09/25 14:51:13;;;;;;;7.13;3.70;;;;;;;;;;5096314;28;20020;-77
2022/09/25 14:53:43;;;;;;;4.57;3.60;;;;;;;;;;5096228;28;20051;-77
2022/09/25 14:56:11;;;;;;;5.50;3.78;;;;;;;;;;5096118;28;20028;-77
2022/09/25 14:58:41;;;;;;;7.25;3.78;;;;;;;;;;5096163;28;20050;-77
2022/09/25 15:01:35;;;;;;;7.70;3.90;;;;;;;;;;5101947;28;20081;-76
2022/09/25 15:04:03;;;;;;;5.03;3.70;;;;;;;;;;5109482;28;20040;-77
2022/09/25 15:06:31;;;;;;;4.88;3.63;;;;;;;;;;5111818;28;20050;-77
2022/09/25 15:08:57;;;;;;;5.15;3.75;;;;;;;;;;5112206;28;20027;-77
2022/09/25 15:11:26;;;;;;;6.20;3.60;;;;;;;;;;5113185;28;20077;-77
2022/09/25 15:13:52;;;;;;;5.93;3.70;;;;;;;;;;5111272;28;20024;-77
2022/09/25 15:19:16;;;;;;;4.88;3.60;;;;;;;;;;5112131;28;20035;-76
2022/09/25 15:21:43;;;;;;;6.43;3.58;;;;;;;;;;5111632;28;20024;-77
2022/09/25 15:24:13;;;;;;;6.45;3.70;;;;;;;;;;5113577;28;20020;-77
2022/09/25 15:26:50;;;;;;;9.98;4.13;;;;;;;;;;5112778;28;20019;-76
2022/09/25 15:29:19;;;;;;;5.40;4.40;;;;;;;;;;5111246;28;20500;-77
2022/09/25 15:31:49;;;;;;;5.63;4.03;;;;;;;;;;5112849;28;20154;-77
2022/09/25 15:34:20;;;;;;;5.75;3.83;;;;;;;;;;5113106;28;20027;-77